Hanson, Texas
Current Conditions -  °F | °C
As of 11:56 AM on Saturday 25 Oct 2014 (Local Time) from KSHV Reporting Station
Clear Clear  
Wind Chill: 78°   Ceiling: Unl
Heat Index: 79°   Visibility: 10mi
Dew Point: 59°   Wind: 8mph
Humidity: 52%   Direction: 260°W
Pressure: 30.16"   Gusts: NA
Location:  31.9194°N, 94.0667°W
Report Text: KSHV 251656Z 26007KT 10SM CLR 26/15 A3016 RMK AO2 SLP209 T02560150
Loading
Personal Weather Stations






























Interactive Weather Map
Tropical Storm Tracking
New forecast layout! Learn more

10-Day Weather Forecast

Advertisements
Track Severe Weather on mobile